sensor_id;sensor_type;location;lat;lon;timestamp;pressure;altitude;pressure_sealevel;temperature;humidity
41515;BME280;27247;48.020;16.720;2024-01-30T00:00:49;101881.22;;;1.12;100.00
41515;BME280;27247;48.020;16.720;2024-01-30T00:04:59;101870.75;;;1.10;100.00
41515;BME280;27247;48.020;16.720;2024-01-30T00:09:10;101870.25;;;1.01;100.00
41515;BME280;27247;48.020;16.720;2024-01-30T00:13:21;101877.50;;;0.95;100.00
41515;BME280;27247;48.020;16.720;2024-01-30T00:17:31;101871.81;;;1.06;100.00
41515;BME280;27247;48.020;16.720;2024-01-30T00:21:41;101881.47;;;1.06;100.00
41515;BME280;27247;48.020;16.720;2024-01-30T00:25:52;101872.72;;;1.05;100.00
41515;BME280;27247;48.020;16.720;2024-01-30T00:30:02;101867.94;;;1.15;100.00
41515;BME280;27247;48.020;16.720;2024-01-30T00:34:13;101882.06;;;1.12;100.00
41515;BME280;27247;48.020;16.720;2024-01-30T00:38:23;101886.63;;;1.09;100.00
41515;BME280;27247;48.020;16.720;2024-01-30T00:42:34;101886.56;;;1.10;100.00
41515;BME280;27247;48.020;16.720;2024-01-30T00:46:44;101898.91;;;1.08;100.00
41515;BME280;27247;48.020;16.720;2024-01-30T00:50:54;101905.47;;;0.98;100.00
41515;BME280;27247;48.020;16.720;2024-01-30T00:55:05;101904.97;;;1.10;100.00
41515;BME280;27247;48.020;16.720;2024-01-30T00:59:15;101915.69;;;0.84;100.00
41515;BME280;27247;48.020;16.720;2024-01-30T01:03:26;101903.28;;;0.87;100.00
41515;BME280;27247;48.020;16.720;2024-01-30T01:07:36;101898.00;;;0.87;100.00
41515;BME280;27247;48.020;16.720;2024-01-30T01:11:46;101891.09;;;0.85;100.00
41515;BME280;27247;48.020;16.720;2024-01-30T01:15:56;101902.06;;;0.74;100.00
41515;BME280;27247;48.020;16.720;2024-01-30T01:20:07;101893.06;;;0.80;100.00
41515;BME280;27247;48.020;16.720;2024-01-30T01:24:18;101894.72;;;0.60;100.00
41515;BME280;27247;48.020;16.720;2024-01-30T01:28:28;101908.19;;;0.53;100.00
41515;BME280;27247;48.020;16.720;2024-01-30T01:32:39;101904.44;;;0.58;100.00
41515;BME280;27247;48.020;16.720;2024-01-30T01:36:54;101898.88;;;0.44;100.00
41515;BME280;27247;48.020;16.720;2024-01-30T01:41:05;101880.47;;;0.44;100.00
41515;BME280;27247;48.020;16.720;2024-01-30T01:45:15;101878.94;;;0.39;100.00
41515;BME280;27247;48.020;16.720;2024-01-30T01:49:27;101879.28;;;0.29;100.00
41515;BME280;27247;48.020;16.720;2024-01-30T01:53:38;101885.53;;;0.27;100.00
41515;BME280;27247;48.020;16.720;2024-01-30T01:57:48;101872.63;;;0.21;100.00
41515;BME280;27247;48.020;16.720;2024-01-30T02:01:59;101872.91;;;0.13;100.00
41515;BME280;27247;48.020;16.720;2024-01-30T02:06:13;101875.66;;;0.10;100.00
41515;BME280;27247;48.020;16.720;2024-01-30T02:10:24;101871.63;;;0.02;100.00
41515;BME280;27247;48.020;16.720;2024-01-30T02:14:47;101874.38;;;-0.03;100.00
41515;BME280;27247;48.020;16.720;2024-01-30T02:18:57;101866.44;;;-0.02;100.00
41515;BME280;27247;48.020;16.720;2024-01-30T02:23:09;101858.56;;;-0.02;100.00
41515;BME280;27247;48.020;16.720;2024-01-30T02:27:20;101862.09;;;-0.03;100.00
41515;BME280;27247;48.020;16.720;2024-01-30T02:31:30;101870.97;;;-0.05;100.00
41515;BME280;27247;48.020;16.720;2024-01-30T02:35:40;101865.53;;;-0.01;100.00
41515;BME280;27247;48.020;16.720;2024-01-30T02:39:51;101864.03;;;-0.08;100.00
41515;BME280;27247;48.020;16.720;2024-01-30T02:44:02;101870.28;;;-0.10;100.00
41515;BME280;27247;48.020;16.720;2024-01-30T02:48:12;101866.97;;;-0.15;100.00
41515;BME280;27247;48.020;16.720;2024-01-30T02:52:23;101867.81;;;-0.15;100.00
41515;BME280;27247;48.020;16.720;2024-01-30T02:56:33;101850.28;;;-0.14;100.00
41515;BME280;27247;48.020;16.720;2024-01-30T03:00:43;101852.13;;;-0.16;100.00
41515;BME280;27247;48.020;16.720;2024-01-30T03:04:54;101834.69;;;-0.19;100.00
41515;BME280;27247;48.020;16.720;2024-01-30T03:09:04;101845.16;;;-0.17;100.00
41515;BME280;27247;48.020;16.720;2024-01-30T03:13:14;101846.91;;;-0.18;100.00
41515;BME280;27247;48.020;16.720;2024-01-30T03:17:25;101848.13;;;-0.26;100.00
41515;BME280;27247;48.020;16.720;2024-01-30T03:21:35;101838.28;;;-0.21;100.00
41515;BME280;27247;48.020;16.720;2024-01-30T03:25:46;101826.94;;;-0.22;100.00
41515;BME280;27247;48.020;16.720;2024-01-30T03:29:56;101821.97;;;-0.29;100.00
41515;BME280;27247;48.020;16.720;2024-01-30T03:34:06;101815.00;;;-0.30;100.00
41515;BME280;27247;48.020;16.720;2024-01-30T03:38:17;101824.72;;;-0.33;100.00
41515;BME280;27247;48.020;16.720;2024-01-30T03:42:27;101819.44;;;-0.33;100.00
41515;BME280;27247;48.020;16.720;2024-01-30T03:46:37;101819.63;;;-0.37;100.00
41515;BME280;27247;48.020;16.720;2024-01-30T03:50:47;101818.25;;;-0.47;100.00
41515;BME280;27247;48.020;16.720;2024-01-30T03:54:58;101810.50;;;-0.50;100.00
41515;BME280;27247;48.020;16.720;2024-01-30T03:59:08;101809.97;;;-0.60;100.00
41515;BME280;27247;48.020;16.720;2024-01-30T04:03:18;101798.28;;;-0.51;100.00
41515;BME280;27247;48.020;16.720;2024-01-30T04:07:29;101796.56;;;-0.52;100.00
41515;BME280;27247;48.020;16.720;2024-01-30T04:11:39;101792.44;;;-0.59;100.00
41515;BME280;27247;48.020;16.720;2024-01-30T04:15:49;101793.19;;;-0.56;100.00
41515;BME280;27247;48.020;16.720;2024-01-30T04:20:00;101789.94;;;-0.62;100.00
41515;BME280;27247;48.020;16.720;2024-01-30T04:24:10;101782.13;;;-0.64;100.00
41515;BME280;27247;48.020;16.720;2024-01-30T04:28:21;101775.28;;;-0.68;100.00
41515;BME280;27247;48.020;16.720;2024-01-30T04:32:32;101771.97;;;-0.73;100.00
41515;BME280;27247;48.020;16.720;2024-01-30T04:36:44;101777.94;;;-0.70;100.00
41515;BME280;27247;48.020;16.720;2024-01-30T04:40:55;101781.50;;;-0.71;100.00
41515;BME280;27247;48.020;16.720;2024-01-30T04:45:06;101788.44;;;-0.70;100.00
41515;BME280;27247;48.020;16.720;2024-01-30T04:49:17;101793.97;;;-0.77;100.00
41515;BME280;27247;48.020;16.720;2024-01-30T04:53:27;101779.09;;;-0.77;100.00
41515;BME280;27247;48.020;16.720;2024-01-30T04:57:37;101788.94;;;-0.83;100.00
41515;BME280;27247;48.020;16.720;2024-01-30T05:01:47;101781.88;;;-0.81;100.00
41515;BME280;27247;48.020;16.720;2024-01-30T05:05:58;101779.31;;;-0.83;100.00
41515;BME280;27247;48.020;16.720;2024-01-30T05:10:09;101770.47;;;-0.80;100.00
41515;BME280;27247;48.020;16.720;2024-01-30T05:14:19;101776.78;;;-0.86;100.00
41515;BME280;27247;48.020;16.720;2024-01-30T05:18:29;101776.78;;;-0.86;100.00
41515;BME280;27247;48.020;16.720;2024-01-30T05:22:39;101766.31;;;-0.86;100.00
41515;BME280;27247;48.020;16.720;2024-01-30T05:26:54;101754.09;;;-0.87;100.00
41515;BME280;27247;48.020;16.720;2024-01-30T05:31:05;101764.53;;;-0.85;100.00
41515;BME280;27247;48.020;16.720;2024-01-30T05:35:15;101768.91;;;-0.86;100.00
41515;BME280;27247;48.020;16.720;2024-01-30T05:39:26;101770.81;;;-0.89;100.00
41515;BME280;27247;48.020;16.720;2024-01-30T05:43:36;101776.78;;;-0.86;100.00
41515;BME280;27247;48.020;16.720;2024-01-30T05:47:47;101776.56;;;-0.80;100.00
41515;BME280;27247;48.020;16.720;2024-01-30T05:51:57;101767.78;;;-0.79;100.00
41515;BME280;27247;48.020;16.720;2024-01-30T05:56:07;101778.41;;;-0.82;100.00
41515;BME280;27247;48.020;16.720;2024-01-30T06:00:18;101783.47;;;-0.77;100.00
41515;BME280;27247;48.020;16.720;2024-01-30T06:04:28;101782.72;;;-0.81;100.00
41515;BME280;27247;48.020;16.720;2024-01-30T06:08:38;101787.06;;;-0.80;100.00
41515;BME280;27247;48.020;16.720;2024-01-30T06:12:49;101781.06;;;-0.83;100.00
41515;BME280;27247;48.020;16.720;2024-01-30T06:16:59;101775.09;;;-0.87;100.00
41515;BME280;27247;48.020;16.720;2024-01-30T06:21:10;101784.59;;;-0.84;100.00
41515;BME280;27247;48.020;16.720;2024-01-30T06:25:20;101770.47;;;-0.80;100.00
41515;BME280;27247;48.020;16.720;2024-01-30T06:29:30;101781.78;;;-0.78;100.00
41515;BME280;27247;48.020;16.720;2024-01-30T06:33:40;101799.97;;;-0.74;100.00
41515;BME280;27247;48.020;16.720;2024-01-30T06:37:52;101811.16;;;-0.69;100.00
41515;BME280;27247;48.020;16.720;2024-01-30T06:42:02;101803.22;;;-0.67;100.00
41515;BME280;27247;48.020;16.720;2024-01-30T06:46:13;101804.72;;;-0.60;100.00
41515;BME280;27247;48.020;16.720;2024-01-30T06:50:25;101803.81;;;-0.59;100.00
41515;BME280;27247;48.020;16.720;2024-01-30T06:54:35;101813.13;;;-0.50;100.00
41515;BME280;27247;48.020;16.720;2024-01-30T06:58:48;101815.56;;;-0.46;100.00
41515;BME280;27247;48.020;16.720;2024-01-30T07:02:58;101811.00;;;-0.41;100.00
41515;BME280;27247;48.020;16.720;2024-01-30T07:07:08;101824.66;;;-0.31;100.00
41515;BME280;27247;48.020;16.720;2024-01-30T07:11:22;101803.47;;;-0.26;100.00
41515;BME280;27247;48.020;16.720;2024-01-30T07:15:33;101782.28;;;-0.22;100.00
41515;BME280;27247;48.020;16.720;2024-01-30T07:19:44;101805.69;;;-0.16;100.00
41515;BME280;27247;48.020;16.720;2024-01-30T07:23:54;101814.91;;;-0.06;100.00
41515;BME280;27247;48.020;16.720;2024-01-30T07:28:05;101803.28;;;0.02;100.00
41515;BME280;27247;48.020;16.720;2024-01-30T07:32:16;101810.94;;;0.08;100.00
41515;BME280;27247;48.020;16.720;2024-01-30T07:36:26;101808.97;;;0.13;100.00
41515;BME280;27247;48.020;16.720;2024-01-30T07:40:37;101821.81;;;0.20;100.00
41515;BME280;27247;48.020;16.720;2024-01-30T07:44:47;101811.97;;;0.25;100.00
41515;BME280;27247;48.020;16.720;2024-01-30T07:48:58;101797.66;;;0.32;100.00
41515;BME280;27247;48.020;16.720;2024-01-30T07:53:08;101810.03;;;0.30;100.00
41515;BME280;27247;48.020;16.720;2024-01-30T07:57:19;101799.88;;;0.43;100.00
41515;BME280;27247;48.020;16.720;2024-01-30T08:01:29;101807.44;;;0.51;100.00
41515;BME280;27247;48.020;16.720;2024-01-30T08:05:39;101798.31;;;0.59;100.00
41515;BME280;27247;48.020;16.720;2024-01-30T08:09:50;101799.91;;;0.63;100.00
41515;BME280;27247;48.020;16.720;2024-01-30T08:14:00;101815.03;;;0.79;100.00
41515;BME280;27247;48.020;16.720;2024-01-30T08:18:10;101827.22;;;0.81;100.00
41515;BME280;27247;48.020;16.720;2024-01-30T08:22:21;101822.41;;;0.91;100.00
41515;BME280;27247;48.020;16.720;2024-01-30T08:26:32;101825.44;;;1.02;100.00
41515;BME280;27247;48.020;16.720;2024-01-30T08:30:42;101835.41;;;1.16;98.80
41515;BME280;27247;48.020;16.720;2024-01-30T08:34:52;101857.00;;;1.24;98.01
41515;BME280;27247;48.020;16.720;2024-01-30T08:39:03;101830.34;;;1.32;97.76
41515;BME280;27247;48.020;16.720;2024-01-30T08:43:13;101843.03;;;1.42;97.30
41515;BME280;27247;48.020;16.720;2024-01-30T08:47:23;101830.81;;;1.60;97.06
41515;BME280;27247;48.020;16.720;2024-01-30T08:51:35;101835.59;;;1.71;96.18
41515;BME280;27247;48.020;16.720;2024-01-30T08:55:46;101837.31;;;1.72;94.73
41515;BME280;27247;48.020;16.720;2024-01-30T08:59:56;101845.78;;;1.78;95.58
41515;BME280;27247;48.020;16.720;2024-01-30T09:04:07;101837.25;;;1.92;94.89
41515;BME280;27247;48.020;16.720;2024-01-30T09:08:17;101832.63;;;1.97;95.32
41515;BME280;27247;48.020;16.720;2024-01-30T09:12:27;101834.81;;;1.87;93.95
41515;BME280;27247;48.020;16.720;2024-01-30T09:16:37;101842.72;;;2.06;94.06
41515;BME280;27247;48.020;16.720;2024-01-30T09:20:48;101839.75;;;2.14;92.84
41515;BME280;27247;48.020;16.720;2024-01-30T09:24:58;101847.09;;;2.26;93.05
41515;BME280;27247;48.020;16.720;2024-01-30T09:29:09;101849.78;;;2.43;93.17
41515;BME280;27247;48.020;16.720;2024-01-30T09:33:19;101852.81;;;2.53;92.77
41515;BME280;27247;48.020;16.720;2024-01-30T09:37:30;101855.28;;;2.75;91.60
41515;BME280;27247;48.020;16.720;2024-01-30T09:41:48;101841.06;;;2.77;91.18
41515;BME280;27247;48.020;16.720;2024-01-30T09:46:02;101840.69;;;2.85;90.38
41515;BME280;27247;48.020;16.720;2024-01-30T09:50:14;101835.41;;;2.85;90.16
41515;BME280;27247;48.020;16.720;2024-01-30T09:54:24;101834.16;;;2.92;89.54
41515;BME280;27247;48.020;16.720;2024-01-30T09:58:35;101843.88;;;3.09;89.00
41515;BME280;27247;48.020;16.720;2024-01-30T10:02:45;101845.97;;;3.37;88.58
41515;BME280;27247;48.020;16.720;2024-01-30T10:06:56;101848.28;;;3.43;87.54
41515;BME280;27247;48.020;16.720;2024-01-30T10:11:09;101859.53;;;3.64;86.64
41515;BME280;27247;48.020;16.720;2024-01-30T10:15:19;101862.66;;;3.88;85.51
41515;BME280;27247;48.020;16.720;2024-01-30T10:19:29;101862.66;;;4.03;85.11
41515;BME280;27247;48.020;16.720;2024-01-30T10:23:40;101871.50;;;4.20;83.41
41515;BME280;27247;48.020;16.720;2024-01-30T10:27:54;101858.88;;;4.25;83.56
41515;BME280;27247;48.020;16.720;2024-01-30T10:32:08;101848.75;;;4.15;82.98
41515;BME280;27247;48.020;16.720;2024-01-30T10:36:25;101842.63;;;4.46;84.36
41515;BME280;27247;48.020;16.720;2024-01-30T10:40:38;101823.81;;;4.67;84.39
41515;BME280;27247;48.020;16.720;2024-01-30T10:45:08;101829.44;;;4.76;82.52
41515;BME280;27247;48.020;16.720;2024-01-30T10:49:19;101804.34;;;4.68;82.82
41515;BME280;27247;48.020;16.720;2024-01-30T10:53:32;101810.66;;;4.65;82.64
41515;BME280;27247;48.020;16.720;2024-01-30T10:57:42;101807.50;;;4.89;82.31
41515;BME280;27247;48.020;16.720;2024-01-30T11:01:53;101801.69;;;5.12;82.48
41515;BME280;27247;48.020;16.720;2024-01-30T11:06:03;101801.94;;;4.93;80.31
41515;BME280;27247;48.020;16.720;2024-01-30T11:10:14;101798.63;;;4.90;81.66
41515;BME280;27247;48.020;16.720;2024-01-30T11:14:26;101787.59;;;5.11;79.94
41515;BME280;27247;48.020;16.720;2024-01-30T11:18:36;101796.75;;;5.50;79.15
41515;BME280;27247;48.020;16.720;2024-01-30T11:22:49;101807.16;;;5.67;79.08
41515;BME280;27247;48.020;16.720;2024-01-30T11:27:02;101795.88;;;5.78;78.54
41515;BME280;27247;48.020;16.720;2024-01-30T11:31:18;101794.25;;;5.75;78.23
41515;BME280;27247;48.020;16.720;2024-01-30T11:35:32;101783.94;;;5.99;76.98
41515;BME280;27247;48.020;16.720;2024-01-30T11:39:42;101773.81;;;6.33;76.73
41515;BME280;27247;48.020;16.720;2024-01-30T11:43:53;101778.13;;;6.07;76.52
41515;BME280;27247;48.020;16.720;2024-01-30T11:48:04;101768.72;;;6.30;77.14
41515;BME280;27247;48.020;16.720;2024-01-30T11:52:14;101757.56;;;6.77;77.63
41515;BME280;27247;48.020;16.720;2024-01-30T11:56:25;101753.00;;;6.79;74.35
41515;BME280;27247;48.020;16.720;2024-01-30T12:00:36;101739.94;;;6.76;75.88
41515;BME280;27247;48.020;16.720;2024-01-30T12:04:47;101734.81;;;6.73;73.89
41515;BME280;27247;48.020;16.720;2024-01-30T12:08:58;101718.78;;;6.87;74.71
41515;BME280;27247;48.020;16.720;2024-01-30T12:13:09;101710.06;;;7.11;74.63
41515;BME280;27247;48.020;16.720;2024-01-30T12:17:30;101710.03;;;6.60;74.14
41515;BME280;27247;48.020;16.720;2024-01-30T12:21:41;101698.91;;;6.80;73.26
41515;BME280;27247;48.020;16.720;2024-01-30T12:25:52;101699.00;;;7.04;74.30
41515;BME280;27247;48.020;16.720;2024-01-30T12:30:06;101703.16;;;7.08;72.41
41515;BME280;27247;48.020;16.720;2024-01-30T12:34:17;101697.59;;;7.49;74.72
41515;BME280;27247;48.020;16.720;2024-01-30T12:38:27;101687.22;;;7.33;73.83
41515;BME280;27247;48.020;16.720;2024-01-30T12:42:38;101693.03;;;7.26;73.90
41515;BME280;27247;48.020;16.720;2024-01-30T12:46:48;101696.09;;;7.58;72.86
41515;BME280;27247;48.020;16.720;2024-01-30T12:50:59;101689.59;;;7.62;71.92
41515;BME280;27247;48.020;16.720;2024-01-30T12:55:09;101684.88;;;7.29;71.86
41515;BME280;27247;48.020;16.720;2024-01-30T12:59:19;101685.78;;;7.53;71.79
41515;BME280;27247;48.020;16.720;2024-01-30T13:03:30;101686.75;;;7.52;72.20
41515;BME280;27247;48.020;16.720;2024-01-30T13:07:40;101699.03;;;7.66;70.97
41515;BME280;27247;48.020;16.720;2024-01-30T13:11:50;101693.81;;;8.01;71.34
41515;BME280;27247;48.020;16.720;2024-01-30T13:16:01;101706.19;;;8.13;69.98
41515;BME280;27247;48.020;16.720;2024-01-30T13:20:11;101700.03;;;7.89;69.01
41515;BME280;27247;48.020;16.720;2024-01-30T13:24:22;101704.91;;;7.95;68.30
41515;BME280;27247;48.020;16.720;2024-01-30T13:28:32;101708.16;;;7.75;68.57
41515;BME280;27247;48.020;16.720;2024-01-30T13:32:43;101709.38;;;8.18;68.57
41515;BME280;27247;48.020;16.720;2024-01-30T13:36:54;101699.19;;;8.12;68.44
41515;BME280;27247;48.020;16.720;2024-01-30T13:41:04;101696.38;;;7.66;68.39
41515;BME280;27247;48.020;16.720;2024-01-30T13:45:15;101694.94;;;7.86;69.88
41515;BME280;27247;48.020;16.720;2024-01-30T13:49:25;101687.47;;;7.91;69.06
41515;BME280;27247;48.020;16.720;2024-01-30T13:53:35;101693.56;;;8.04;68.05
41515;BME280;27247;48.020;16.720;2024-01-30T13:57:46;101691.47;;;7.73;68.25
41515;BME280;27247;48.020;16.720;2024-01-30T14:01:56;101692.28;;;7.86;68.39
41515;BME280;27247;48.020;16.720;2024-01-30T14:06:06;101695.78;;;7.50;67.26
41515;BME280;27247;48.020;16.720;2024-01-30T14:10:16;101705.78;;;7.83;68.32
41515;BME280;27247;48.020;16.720;2024-01-30T14:14:27;101700.19;;;7.98;67.07
41515;BME280;27247;48.020;16.720;2024-01-30T14:18:37;101697.03;;;8.17;66.43
41515;BME280;27247;48.020;16.720;2024-01-30T14:22:47;101702.56;;;8.14;66.35
41515;BME280;27247;48.020;16.720;2024-01-30T14:26:58;101712.78;;;8.33;66.20
41515;BME280;27247;48.020;16.720;2024-01-30T14:31:09;101702.72;;;8.37;65.93
41515;BME280;27247;48.020;16.720;2024-01-30T14:35:20;101697.09;;;8.05;65.50
41515;BME280;27247;48.020;16.720;2024-01-30T14:39:30;101713.16;;;8.40;65.80
41515;BME280;27247;48.020;16.720;2024-01-30T14:43:41;101696.84;;;8.31;65.69
41515;BME280;27247;48.020;16.720;2024-01-30T14:47:51;101695.94;;;8.20;65.61
41515;BME280;27247;48.020;16.720;2024-01-30T14:52:02;101703.16;;;8.07;65.69
41515;BME280;27247;48.020;16.720;2024-01-30T14:56:14;101702.97;;;7.97;65.77
41515;BME280;27247;48.020;16.720;2024-01-30T15:00:25;101706.03;;;7.80;66.67
41515;BME280;27247;48.020;16.720;2024-01-30T15:04:35;101698.16;;;7.29;66.37
41515;BME280;27247;48.020;16.720;2024-01-30T15:08:45;101705.81;;;7.21;67.33
41515;BME280;27247;48.020;16.720;2024-01-30T15:12:56;101706.13;;;6.91;68.20
41515;BME280;27247;48.020;16.720;2024-01-30T15:17:06;101703.78;;;6.61;68.80
41515;BME280;27247;48.020;16.720;2024-01-30T15:21:16;101694.91;;;6.35;69.66
41515;BME280;27247;48.020;16.720;2024-01-30T15:25:30;101696.72;;;6.07;70.31
41515;BME280;27247;48.020;16.720;2024-01-30T15:29:40;101699.69;;;5.89;71.71
41515;BME280;27247;48.020;16.720;2024-01-30T15:33:51;101696.44;;;5.57;72.60
41515;BME280;27247;48.020;16.720;2024-01-30T15:38:01;101699.31;;;5.39;73.51
41515;BME280;27247;48.020;16.720;2024-01-30T15:42:13;101712.28;;;5.16;75.14
41515;BME280;27247;48.020;16.720;2024-01-30T15:46:23;101707.72;;;4.89;75.58
41515;BME280;27247;48.020;16.720;2024-01-30T15:50:34;101707.97;;;4.70;76.54
41515;BME280;27247;48.020;16.720;2024-01-30T15:54:45;101709.25;;;4.49;77.19
41515;BME280;27247;48.020;16.720;2024-01-30T15:58:56;101691.56;;;4.49;77.81
41515;BME280;27247;48.020;16.720;2024-01-30T16:03:06;101695.78;;;4.38;78.25
41515;BME280;27247;48.020;16.720;2024-01-30T16:07:17;101708.63;;;4.30;78.57
41515;BME280;27247;48.020;16.720;2024-01-30T16:11:27;101701.53;;;4.14;79.22
41515;BME280;27247;48.020;16.720;2024-01-30T16:15:38;101706.59;;;4.03;79.98
41515;BME280;27247;48.020;16.720;2024-01-30T16:19:49;101708.31;;;4.04;80.43
41515;BME280;27247;48.020;16.720;2024-01-30T16:24:00;101710.53;;;3.96;80.58
41515;BME280;27247;48.020;16.720;2024-01-30T16:28:10;101709.78;;;3.94;80.92
41515;BME280;27247;48.020;16.720;2024-01-30T16:32:20;101707.66;;;3.85;81.41
41515;BME280;27247;48.020;16.720;2024-01-30T16:36:31;101705.53;;;3.76;81.85
41515;BME280;27247;48.020;16.720;2024-01-30T16:40:41;101705.94;;;3.68;82.07
41515;BME280;27247;48.020;16.720;2024-01-30T16:44:52;101704.25;;;3.67;82.34
41515;BME280;27247;48.020;16.720;2024-01-30T16:49:02;101705.44;;;3.62;82.50
41515;BME280;27247;48.020;16.720;2024-01-30T16:53:12;101714.38;;;3.43;83.20
41515;BME280;27247;48.020;16.720;2024-01-30T16:57:22;101698.69;;;3.56;83.19
41515;BME280;27247;48.020;16.720;2024-01-30T17:01:33;101684.38;;;3.60;82.86
41515;BME280;27247;48.020;16.720;2024-01-30T17:05:43;101685.66;;;3.69;82.42
41515;BME280;27247;48.020;16.720;2024-01-30T17:09:53;101696.41;;;3.66;82.54
41515;BME280;27247;48.020;16.720;2024-01-30T17:14:06;101706.88;;;3.51;83.31
41515;BME280;27247;48.020;16.720;2024-01-30T17:18:16;101696.31;;;3.51;83.75
41515;BME280;27247;48.020;16.720;2024-01-30T17:22:28;101679.09;;;3.60;83.42
41515;BME280;27247;48.020;16.720;2024-01-30T17:26:40;101676.88;;;3.52;84.12
41515;BME280;27247;48.020;16.720;2024-01-30T17:30:50;101688.56;;;3.48;84.10
41515;BME280;27247;48.020;16.720;2024-01-30T17:35:01;101690.06;;;3.37;85.14
41515;BME280;27247;48.020;16.720;2024-01-30T17:39:11;101691.38;;;3.45;84.55
41515;BME280;27247;48.020;16.720;2024-01-30T17:43:21;101684.78;;;3.37;84.79
41515;BME280;27247;48.020;16.720;2024-01-30T17:47:32;101705.06;;;3.20;85.12
41515;BME280;27247;48.020;16.720;2024-01-30T17:51:42;101691.88;;;3.36;84.69
41515;BME280;27247;48.020;16.720;2024-01-30T17:55:52;101706.69;;;3.23;84.68
41515;BME280;27247;48.020;16.720;2024-01-30T18:00:03;101705.66;;;3.26;84.70
41515;BME280;27247;48.020;16.720;2024-01-30T18:04:17;101697.03;;;3.22;85.08
41515;BME280;27247;48.020;16.720;2024-01-30T18:08:27;101696.44;;;3.17;85.63
41515;BME280;27247;48.020;16.720;2024-01-30T18:12:38;101697.59;;;3.11;85.23
41515;BME280;27247;48.020;16.720;2024-01-30T18:16:49;101707.19;;;2.97;86.27
41515;BME280;27247;48.020;16.720;2024-01-30T18:20:59;101699.00;;;3.01;86.35
41515;BME280;27247;48.020;16.720;2024-01-30T18:25:09;101700.28;;;2.94;86.42
41515;BME280;27247;48.020;16.720;2024-01-30T18:29:20;101708.28;;;2.93;86.66
41515;BME280;27247;48.020;16.720;2024-01-30T18:33:30;101702.63;;;2.83;86.42
41515;BME280;27247;48.020;16.720;2024-01-30T18:37:40;101707.53;;;2.73;86.14
41515;BME280;27247;48.020;16.720;2024-01-30T18:41:51;101705.81;;;2.72;86.43
41515;BME280;27247;48.020;16.720;2024-01-30T18:46:01;101699.84;;;2.69;86.79
41515;BME280;27247;48.020;16.720;2024-01-30T18:50:12;101690.84;;;2.73;86.32
41515;BME280;27247;48.020;16.720;2024-01-30T18:54:23;101707.81;;;2.84;85.81
41515;BME280;27247;48.020;16.720;2024-01-30T18:58:34;101694.41;;;2.72;85.35
41515;BME280;27247;48.020;16.720;2024-01-30T19:02:45;101693.25;;;2.60;85.63
41515;BME280;27247;48.020;16.720;2024-01-30T19:06:56;101701.81;;;2.48;85.96
41515;BME280;27247;48.020;16.720;2024-01-30T19:11:17;101705.13;;;2.51;86.20
41515;BME280;27247;48.020;16.720;2024-01-30T19:15:29;101695.59;;;2.49;86.16
41515;BME280;27247;48.020;16.720;2024-01-30T19:19:40;101690.94;;;2.54;85.72
41515;BME280;27247;48.020;16.720;2024-01-30T19:23:51;101699.63;;;2.56;85.50
41515;BME280;27247;48.020;16.720;2024-01-30T19:28:04;101689.53;;;2.47;86.14
41515;BME280;27247;48.020;16.720;2024-01-30T19:32:15;101685.34;;;2.43;85.53
41515;BME280;27247;48.020;16.720;2024-01-30T19:36:26;101684.81;;;2.36;86.60
41515;BME280;27247;48.020;16.720;2024-01-30T19:40:37;101692.72;;;2.36;86.48
41515;BME280;27247;48.020;16.720;2024-01-30T19:44:48;101690.16;;;2.35;86.36
41515;BME280;27247;48.020;16.720;2024-01-30T19:48:59;101709.78;;;2.29;86.21
41515;BME280;27247;48.020;16.720;2024-01-30T19:53:10;101684.09;;;2.15;86.83
41515;BME280;27247;48.020;16.720;2024-01-30T19:57:21;101687.09;;;2.08;87.04
41515;BME280;27247;48.020;16.720;2024-01-30T20:01:32;101682.25;;;2.17;87.07
41515;BME280;27247;48.020;16.720;2024-01-30T20:05:44;101694.28;;;2.23;86.80
41515;BME280;27247;48.020;16.720;2024-01-30T20:09:54;101683.25;;;2.15;86.22
41515;BME280;27247;48.020;16.720;2024-01-30T20:14:05;101675.16;;;2.01;87.25
41515;BME280;27247;48.020;16.720;2024-01-30T20:18:16;101678.78;;;1.98;87.27
41515;BME280;27247;48.020;16.720;2024-01-30T20:22:27;101678.41;;;2.06;87.34
41515;BME280;27247;48.020;16.720;2024-01-30T20:26:37;101679.56;;;2.00;87.27
41515;BME280;27247;48.020;16.720;2024-01-30T20:30:48;101683.84;;;2.03;87.01
41515;BME280;27247;48.020;16.720;2024-01-30T20:35:00;101672.44;;;2.02;87.46
41515;BME280;27247;48.020;16.720;2024-01-30T20:39:12;101683.69;;;2.06;87.34
41515;BME280;27247;48.020;16.720;2024-01-30T20:43:24;101687.69;;;1.96;87.52
41515;BME280;27247;48.020;16.720;2024-01-30T20:47:35;101690.34;;;1.96;87.06
41515;BME280;27247;48.020;16.720;2024-01-30T20:51:46;101693.91;;;1.95;87.20
41515;BME280;27247;48.020;16.720;2024-01-30T20:55:57;101694.41;;;1.84;88.35
41515;BME280;27247;48.020;16.720;2024-01-30T21:00:08;101686.44;;;1.85;87.92
41515;BME280;27247;48.020;16.720;2024-01-30T21:04:20;101679.75;;;1.78;88.46
41515;BME280;27247;48.020;16.720;2024-01-30T21:08:30;101682.19;;;1.64;89.10
41515;BME280;27247;48.020;16.720;2024-01-30T21:12:41;101685.63;;;1.66;89.32
41515;BME280;27247;48.020;16.720;2024-01-30T21:16:51;101682.34;;;1.61;88.96
41515;BME280;27247;48.020;16.720;2024-01-30T21:21:01;101673.31;;;1.48;89.74
41515;BME280;27247;48.020;16.720;2024-01-30T21:25:12;101679.09;;;1.37;90.39
41515;BME280;27247;48.020;16.720;2024-01-30T21:29:23;101676.94;;;1.45;90.41
41515;BME280;27247;48.020;16.720;2024-01-30T21:33:33;101672.69;;;1.24;91.43
41515;BME280;27247;48.020;16.720;2024-01-30T21:37:44;101676.09;;;1.26;91.57